createdAt,value
2017-12-13T00:01:00.083Z,15.04
2017-12-13T00:03:28.350Z,22.78
2017-12-13T00:05:56.627Z,16.04
2017-12-13T00:08:24.895Z,15.10
2017-12-13T00:10:53.167Z,16.22
2017-12-13T00:13:21.414Z,15.22
2017-12-13T00:15:49.699Z,18.66
2017-12-13T00:18:17.949Z,17.96
2017-12-13T00:20:46.211Z,15.26
2017-12-13T00:23:14.484Z,12.82
2017-12-13T00:25:42.740Z,16.22
2017-12-13T00:28:11.017Z,18.34
2017-12-13T00:30:39.263Z,21.40
2017-12-13T00:33:07.541Z,14.74
2017-12-13T00:35:35.814Z,16.54
2017-12-13T00:38:04.138Z,15.76
2017-12-13T00:40:32.339Z,12.84
2017-12-13T00:43:00.621Z,15.28
2017-12-13T00:45:29.838Z,14.28
2017-12-13T00:47:58.998Z,15.80
2017-12-13T00:50:28.045Z,14.36
2017-12-13T00:52:56.282Z,15.20
2017-12-13T00:55:24.560Z,19.48
2017-12-13T00:57:52.863Z,14.86
2017-12-13T01:00:21.111Z,12.98
2017-12-13T01:02:49.375Z,12.36
2017-12-13T01:05:17.647Z,14.76
2017-12-13T01:07:45.894Z,15.48
2017-12-13T01:10:14.182Z,13.04
2017-12-13T01:12:42.426Z,13.84
2017-12-13T01:15:10.683Z,13.35
2017-12-13T01:17:38.933Z,12.94
2017-12-13T01:20:07.207Z,14.30
2017-12-13T01:22:35.520Z,11.76
2017-12-13T01:25:03.795Z,12.48
2017-12-13T01:27:32.070Z,12.24
2017-12-13T01:29:59.573Z,11.68
2017-12-13T01:32:29.210Z,15.96
2017-12-13T01:34:57.458Z,14.30
2017-12-13T01:37:25.718Z,13.00
2017-12-13T01:39:53.992Z,13.94
2017-12-13T01:42:22.259Z,13.75
2017-12-13T01:44:50.514Z,14.90
2017-12-13T01:47:18.782Z,15.38
2017-12-13T01:49:47.063Z,13.17
2017-12-13T01:52:15.315Z,15.05
2017-12-13T01:54:43.593Z,19.67
2017-12-13T01:57:11.851Z,19.37
2017-12-13T01:59:40.135Z,12.62
2017-12-13T02:02:08.423Z,13.12
2017-12-13T02:04:36.682Z,15.76
2017-12-13T02:07:04.959Z,16.22
2017-12-13T02:09:33.218Z,11.64
2017-12-13T02:12:01.519Z,16.00
2017-12-13T02:14:30.102Z,15.92
2017-12-13T02:16:58.358Z,15.32
2017-12-13T02:19:26.618Z,14.32
2017-12-13T02:21:54.878Z,23.72
2017-12-13T02:24:23.168Z,14.95
2017-12-13T02:26:53.334Z,19.26
2017-12-13T02:29:21.589Z,14.90
2017-12-13T02:31:49.867Z,17.88
2017-12-13T02:34:18.116Z,14.48
2017-12-13T02:36:45.644Z,10.90
2017-12-13T02:39:13.906Z,12.16
2017-12-13T02:41:42.156Z,14.34
2017-12-13T02:44:10.428Z,15.36
2017-12-13T02:46:38.691Z,17.03
2017-12-13T02:49:06.982Z,12.78
2017-12-13T02:51:35.230Z,12.78
2017-12-13T02:54:03.473Z,18.14
2017-12-13T02:56:31.774Z,17.12
2017-12-13T02:59:00.035Z,14.38
2017-12-13T03:01:28.333Z,15.54
2017-12-13T03:03:56.593Z,16.42
2017-12-13T03:06:24.880Z,22.28
2017-12-13T03:08:53.153Z,16.22
2017-12-13T03:11:21.462Z,15.34
2017-12-13T03:13:49.719Z,19.16
2017-12-13T03:16:17.972Z,13.38
2017-12-13T03:18:46.269Z,18.54
2017-12-13T03:21:14.551Z,16.38
2017-12-13T03:23:42.804Z,15.48
2017-12-13T03:26:11.094Z,22.14
2017-12-13T03:28:39.346Z,17.60
2017-12-13T03:31:07.611Z,18.20
2017-12-13T03:33:35.917Z,14.84
2017-12-13T03:36:04.206Z,21.52
2017-12-13T03:38:32.464Z,19.80
2017-12-13T03:41:00.735Z,18.92
2017-12-13T03:43:30.341Z,17.76
2017-12-13T03:45:59.894Z,18.08
2017-12-13T03:48:28.598Z,19.75
2017-12-13T03:50:56.904Z,17.78
2017-12-13T03:53:25.167Z,15.73
2017-12-13T03:55:53.420Z,19.68
2017-12-13T03:58:21.711Z,20.50
2017-12-13T04:00:49.973Z,16.46
2017-12-13T04:03:18.259Z,16.32
2017-12-13T04:05:46.510Z,17.96
2017-12-13T04:08:14.786Z,20.64
2017-12-13T04:10:43.483Z,19.14
2017-12-13T04:13:11.776Z,29.96
2017-12-13T04:15:40.027Z,17.88
2017-12-13T04:18:08.289Z,14.16
2017-12-13T04:20:36.576Z,14.18
2017-12-13T04:23:04.825Z,17.62
2017-12-13T04:25:33.106Z,14.04
2017-12-13T04:28:01.365Z,14.82
2017-12-13T04:30:29.660Z,13.54
2017-12-13T04:32:59.243Z,16.62
2017-12-13T04:35:28.770Z,16.16
2017-12-13T04:37:58.649Z,14.48
2017-12-13T04:40:26.939Z,19.27
2017-12-13T04:42:55.218Z,13.76
2017-12-13T04:45:23.477Z,12.68
2017-12-13T04:47:51.758Z,12.92
2017-12-13T04:50:20.003Z,15.14
2017-12-13T04:52:48.258Z,45.26
2017-12-13T04:55:16.555Z,13.94
2017-12-13T04:57:44.834Z,16.58
2017-12-13T05:00:13.113Z,12.52
2017-12-13T05:02:41.386Z,14.80
2017-12-13T05:05:09.669Z,13.60
2017-12-13T05:07:37.929Z,14.86
2017-12-13T05:10:06.208Z,11.02
2017-12-13T05:12:34.497Z,11.57
2017-12-13T05:15:02.759Z,11.90
2017-12-13T05:17:31.059Z,14.20
2017-12-13T05:20:05.857Z,15.92
2017-12-13T05:22:34.145Z,13.76
2017-12-13T05:25:02.400Z,15.48
2017-12-13T05:27:30.666Z,12.14
2017-12-13T05:30:00.363Z,15.90
2017-12-13T05:32:29.766Z,14.34
2017-12-13T05:34:59.055Z,10.14
2017-12-13T05:37:28.013Z,11.78
2017-12-13T05:39:56.317Z,10.14
2017-12-13T05:42:24.567Z,12.18
2017-12-13T05:44:52.816Z,14.54
2017-12-13T05:47:21.094Z,10.20
2017-12-13T05:49:49.371Z,8.66
2017-12-13T05:52:17.619Z,9.70
2017-12-13T05:54:45.893Z,11.86
2017-12-13T05:57:14.180Z,9.64
2017-12-13T05:59:42.434Z,13.72
2017-12-13T06:02:10.718Z,10.68
2017-12-13T06:04:38.997Z,13.28
2017-12-13T06:07:07.247Z,10.18
2017-12-13T06:09:35.522Z,12.82
2017-12-13T06:12:03.794Z,11.20
2017-12-13T06:14:32.390Z,10.14
2017-12-13T06:17:00.670Z,13.26
2017-12-13T06:19:29.797Z,12.34
2017-12-13T06:21:59.072Z,8.72
2017-12-13T06:24:27.346Z,14.42
2017-12-13T06:26:55.594Z,11.96
2017-12-13T06:29:23.870Z,13.70
2017-12-13T06:31:52.126Z,20.06
2017-12-13T06:34:20.407Z,11.46
2017-12-13T06:36:47.887Z,11.70
2017-12-13T06:39:16.167Z,12.10
2017-12-13T06:41:44.433Z,12.40
2017-12-13T06:44:12.711Z,13.62
2017-12-13T06:46:40.210Z,13.26
2017-12-13T06:49:08.518Z,9.92
2017-12-13T06:51:36.798Z,8.44
2017-12-13T06:54:05.050Z,10.78
2017-12-13T06:56:33.346Z,10.84
2017-12-13T06:59:01.619Z,13.54
2017-12-13T07:01:29.890Z,11.02
2017-12-13T07:03:58.694Z,9.40
2017-12-13T07:06:27.328Z,12.22
2017-12-13T07:08:55.581Z,10.48
2017-12-13T07:11:23.870Z,9.90
2017-12-13T07:13:52.114Z,9.92
2017-12-13T07:16:20.390Z,13.08
2017-12-13T07:18:48.685Z,8.82
2017-12-13T07:21:16.949Z,11.60
2017-12-13T07:23:45.191Z,9.42
2017-12-13T07:26:13.478Z,13.22
2017-12-13T07:28:41.737Z,7.28
2017-12-13T07:31:10.012Z,13.06
2017-12-13T07:33:38.258Z,10.10
2017-12-13T07:36:06.534Z,12.50
2017-12-13T07:38:34.838Z,17.04
2017-12-13T07:41:08.791Z,8.96
2017-12-13T07:43:37.034Z,7.96
2017-12-13T07:46:05.315Z,9.94
2017-12-13T07:48:33.569Z,15.40
2017-12-13T07:51:01.854Z,12.74
2017-12-13T07:53:30.111Z,10.06
2017-12-13T07:55:58.362Z,12.52
2017-12-13T07:58:26.664Z,9.04
2017-12-13T08:00:54.943Z,9.00
2017-12-13T08:03:23.186Z,9.46
2017-12-13T08:05:51.447Z,10.42
2017-12-13T08:08:18.969Z,7.86
2017-12-13T08:10:47.240Z,7.86
2017-12-13T08:13:14.761Z,9.54
2017-12-13T08:15:43.010Z,7.50
2017-12-13T08:18:11.273Z,9.12
2017-12-13T08:20:39.550Z,10.06
2017-12-13T08:23:07.798Z,7.06
2017-12-13T08:25:36.075Z,6.70
2017-12-13T08:28:04.330Z,11.72
2017-12-13T08:30:32.603Z,11.16
2017-12-13T08:33:11.124Z,9.08
2017-12-13T08:35:39.410Z,12.28
2017-12-13T08:38:08.591Z,20.50
2017-12-13T08:40:36.857Z,9.30
2017-12-13T08:43:05.139Z,9.24
2017-12-13T08:45:33.391Z,9.84
2017-12-13T08:48:01.670Z,8.78
2017-12-13T08:50:29.918Z,9.92
2017-12-13T08:52:59.182Z,7.98
2017-12-13T08:55:27.430Z,7.12
2017-12-13T08:57:55.711Z,8.60
2017-12-13T09:00:23.992Z,10.66
2017-12-13T09:02:52.246Z,9.32
2017-12-13T09:05:20.519Z,10.22
2017-12-13T09:07:48.763Z,8.46
2017-12-13T09:10:17.044Z,11.04
2017-12-13T09:12:45.297Z,11.80
2017-12-13T09:15:13.580Z,8.20
2017-12-13T09:17:41.858Z,10.78
2017-12-13T09:20:15.754Z,12.86
2017-12-13T09:22:44.056Z,10.34
2017-12-13T09:25:12.302Z,15.76
2017-12-13T09:27:40.602Z,7.20
2017-12-13T09:30:08.851Z,6.48
2017-12-13T09:32:37.125Z,7.26
2017-12-13T09:35:05.402Z,7.98
2017-12-13T09:37:33.674Z,9.46
2017-12-13T09:40:01.926Z,9.30
2017-12-13T09:42:30.227Z,8.38
2017-12-13T09:45:00.001Z,16.94
2017-12-13T09:47:28.680Z,11.52
2017-12-13T09:49:56.950Z,12.20
2017-12-13T09:52:25.194Z,10.46
2017-12-13T09:54:53.481Z,7.58
2017-12-13T09:57:21.730Z,9.18
2017-12-13T09:59:49.981Z,6.98
2017-12-13T10:02:18.268Z,7.94
2017-12-13T10:04:46.547Z,11.68
2017-12-13T10:07:14.805Z,11.06
2017-12-13T10:09:43.091Z,13.12
2017-12-13T10:12:11.347Z,12.68
2017-12-13T10:14:39.622Z,12.40
2017-12-13T10:17:07.898Z,13.28
2017-12-13T10:19:36.137Z,12.38
2017-12-13T10:22:04.419Z,11.34
2017-12-13T10:24:32.685Z,11.84
2017-12-13T10:27:00.959Z,11.46
2017-12-13T10:29:35.218Z,16.82
2017-12-13T10:32:03.524Z,7.30
2017-12-13T10:34:31.778Z,14.46
2017-12-13T10:37:00.033Z,9.36
2017-12-13T10:39:28.314Z,8.64
2017-12-13T10:41:56.563Z,8.48
2017-12-13T10:44:24.807Z,13.94
2017-12-13T10:46:53.117Z,8.18
2017-12-13T10:49:21.364Z,17.48
2017-12-13T10:51:49.619Z,10.64
2017-12-13T10:54:17.898Z,10.32
2017-12-13T10:56:46.169Z,12.20
2017-12-13T10:59:14.466Z,12.50
2017-12-13T11:01:42.746Z,8.28
2017-12-13T11:04:10.990Z,6.08
2017-12-13T11:06:39.234Z,8.06
2017-12-13T11:09:07.534Z,9.04
2017-12-13T11:11:35.784Z,7.42
2017-12-13T11:14:04.059Z,14.38
2017-12-13T11:16:32.317Z,7.76
2017-12-13T11:19:00.590Z,7.48
2017-12-13T11:21:29.698Z,7.82
2017-12-13T11:23:59.131Z,5.66
2017-12-13T11:26:29.306Z,5.06
2017-12-13T11:28:58.610Z,5.76
2017-12-13T11:31:29.794Z,5.74
2017-12-13T11:33:57.303Z,4.80
2017-12-13T11:36:25.543Z,6.94
2017-12-13T11:38:53.830Z,4.56
2017-12-13T11:41:22.111Z,4.74
2017-12-13T11:43:50.391Z,4.90
2017-12-13T11:46:18.657Z,4.00
2017-12-13T11:48:46.927Z,4.20
2017-12-13T11:51:15.197Z,5.04
2017-12-13T11:53:43.492Z,3.42
2017-12-13T11:56:11.730Z,3.30
2017-12-13T11:58:40.011Z,4.44
2017-12-13T12:01:08.266Z,5.16
2017-12-13T12:03:36.542Z,10.92
2017-12-13T12:06:04.833Z,4.78
2017-12-13T12:08:33.114Z,9.72
2017-12-13T12:11:01.370Z,2.86
2017-12-13T12:13:29.615Z,4.36
2017-12-13T12:15:58.571Z,4.70
2017-12-13T12:18:26.838Z,2.74
2017-12-13T12:20:55.126Z,3.80
2017-12-13T12:23:23.370Z,3.14
2017-12-13T12:25:51.659Z,2.86
2017-12-13T12:28:19.150Z,4.66
2017-12-13T12:30:47.397Z,2.66
2017-12-13T12:33:15.679Z,3.30
2017-12-13T12:35:43.933Z,2.96
2017-12-13T12:38:12.252Z,3.64
2017-12-13T12:40:40.506Z,3.84
2017-12-13T12:43:08.768Z,2.70
2017-12-13T12:45:37.046Z,1.72
2017-12-13T12:48:05.426Z,2.56
2017-12-13T12:50:33.670Z,4.00
2017-12-13T12:53:01.910Z,2.12
2017-12-13T12:55:30.196Z,3.10
2017-12-13T12:57:59.495Z,3.40
2017-12-13T13:00:28.291Z,2.58
2017-12-13T13:02:56.531Z,2.90
2017-12-13T13:05:24.814Z,2.28
2017-12-13T13:07:53.054Z,2.62
2017-12-13T13:10:21.302Z,2.96
2017-12-13T13:12:49.574Z,2.22
2017-12-13T13:15:17.837Z,3.14
2017-12-13T13:17:46.118Z,3.18
2017-12-13T13:20:14.395Z,3.22
2017-12-13T13:22:42.649Z,2.92
2017-12-13T13:25:10.893Z,3.14
2017-12-13T13:27:39.179Z,4.16
2017-12-13T13:30:07.484Z,4.42
2017-12-13T13:32:35.781Z,3.08
2017-12-13T13:35:04.070Z,6.02
2017-12-13T13:37:32.337Z,2.38
2017-12-13T13:40:00.618Z,2.58
2017-12-13T13:42:29.726Z,4.02
2017-12-13T13:44:58.820Z,3.90
2017-12-13T13:47:27.828Z,3.22
2017-12-13T13:49:56.084Z,4.08
2017-12-13T13:52:24.407Z,4.36
2017-12-13T13:54:52.740Z,2.96
2017-12-13T13:57:20.987Z,4.72
2017-12-13T13:59:49.231Z,2.70
2017-12-13T14:02:17.514Z,3.82
2017-12-13T14:04:45.801Z,2.66
2017-12-13T14:07:14.090Z,2.70
2017-12-13T14:09:42.334Z,3.84
2017-12-13T14:12:10.597Z,3.52
2017-12-13T14:14:38.915Z,2.64
2017-12-13T14:17:07.215Z,2.90
2017-12-13T14:19:34.768Z,3.50
2017-12-13T14:22:03.011Z,4.16
2017-12-13T14:24:31.299Z,3.38
2017-12-13T14:26:59.996Z,2.78
2017-12-13T14:29:28.284Z,2.96
2017-12-13T14:31:56.596Z,2.96
2017-12-13T14:34:24.926Z,3.12
2017-12-13T14:36:53.212Z,4.62
2017-12-13T14:39:21.526Z,4.12
2017-12-13T14:41:49.776Z,6.34
2017-12-13T14:44:18.035Z,5.36
2017-12-13T14:46:46.315Z,3.52
2017-12-13T14:49:14.645Z,6.16
2017-12-13T14:51:42.902Z,3.90
2017-12-13T14:54:11.162Z,3.90
2017-12-13T14:56:39.453Z,3.88
2017-12-13T14:59:07.749Z,3.50
2017-12-13T15:01:36.040Z,3.54
2017-12-13T15:04:04.294Z,4.88
2017-12-13T15:06:32.620Z,3.98
2017-12-13T15:09:04.138Z,6.74
2017-12-13T15:11:32.501Z,3.76
2017-12-13T15:14:00.820Z,5.00
2017-12-13T15:16:30.205Z,4.72
2017-12-13T15:18:59.260Z,4.20
2017-12-13T15:21:28.595Z,3.74
2017-12-13T15:23:56.869Z,4.60
2017-12-13T15:26:25.220Z,6.66
2017-12-13T15:28:53.495Z,4.16
2017-12-13T15:31:21.781Z,3.66
2017-12-13T15:33:50.031Z,4.54
2017-12-13T15:36:18.320Z,3.84
2017-12-13T15:38:47.839Z,4.14
2017-12-13T15:41:16.119Z,3.98
2017-12-13T15:43:44.408Z,5.32
2017-12-13T15:46:12.741Z,6.22
2017-12-13T15:48:41.032Z,4.34
2017-12-13T15:51:09.294Z,5.32
2017-12-13T15:53:37.571Z,4.62
2017-12-13T15:56:06.159Z,4.36
2017-12-13T15:58:34.436Z,3.58
2017-12-13T16:01:02.729Z,4.30
2017-12-13T16:03:31.052Z,3.84
2017-12-13T16:05:59.349Z,5.92
2017-12-13T16:08:28.735Z,4.58
2017-12-13T16:10:57.002Z,5.76
2017-12-13T16:13:24.587Z,7.28
2017-12-13T16:15:52.853Z,3.88
2017-12-13T16:18:21.111Z,5.24
2017-12-13T16:20:49.442Z,4.72
2017-12-13T16:23:17.728Z,3.26
2017-12-13T16:25:46.016Z,3.52
2017-12-13T16:28:14.344Z,4.56
2017-12-13T16:30:43.060Z,4.36
2017-12-13T16:33:11.393Z,4.94
2017-12-13T16:35:39.753Z,6.22
2017-12-13T16:38:08.072Z,5.68
2017-12-13T16:40:36.385Z,12.14
2017-12-13T16:43:04.722Z,10.72
2017-12-13T16:45:33.023Z,4.90
2017-12-13T16:48:01.304Z,4.96
2017-12-13T16:50:29.593Z,3.78
2017-12-13T16:52:59.190Z,5.76
2017-12-13T16:55:27.711Z,3.30
2017-12-13T16:57:56.000Z,4.46
2017-12-13T17:00:24.283Z,5.16
2017-12-13T17:02:52.571Z,5.50
2017-12-13T17:05:20.900Z,3.94
2017-12-13T17:07:49.193Z,5.56
2017-12-13T17:10:17.488Z,4.68
2017-12-13T17:12:45.811Z,8.52
2017-12-13T17:15:14.058Z,5.48
2017-12-13T17:17:42.355Z,6.76
2017-12-13T17:20:10.649Z,4.28
2017-12-13T17:22:38.952Z,5.14
2017-12-13T17:25:07.260Z,4.88
2017-12-13T17:27:35.611Z,4.02
2017-12-13T17:30:03.910Z,4.88
2017-12-13T17:32:32.218Z,4.82
2017-12-13T17:35:00.564Z,3.90
2017-12-13T17:37:29.803Z,5.00
2017-12-13T17:39:59.010Z,4.52
2017-12-13T17:42:27.891Z,3.72
2017-12-13T17:44:56.212Z,3.56
2017-12-13T17:47:24.555Z,4.82
2017-12-13T17:49:52.871Z,3.88
2017-12-13T17:52:21.205Z,10.78
2017-12-13T17:54:49.451Z,4.60
2017-12-13T17:57:17.756Z,4.86
2017-12-13T17:59:46.019Z,3.64
2017-12-13T18:02:14.284Z,5.86
2017-12-13T18:04:41.833Z,5.58
2017-12-13T18:07:10.164Z,5.48
2017-12-13T18:09:38.467Z,7.44
2017-12-13T18:12:06.810Z,5.90
2017-12-13T18:14:35.103Z,10.12
2017-12-13T18:17:03.392Z,6.00
2017-12-13T18:19:31.688Z,5.50
2017-12-13T18:21:59.982Z,6.10
2017-12-13T18:24:28.681Z,6.32
2017-12-13T18:26:58.265Z,7.28
2017-12-13T18:29:26.552Z,11.06
2017-12-13T18:31:54.855Z,13.02
2017-12-13T18:34:23.181Z,8.26
2017-12-13T18:36:51.518Z,6.72
2017-12-13T18:39:19.787Z,7.06
2017-12-13T18:41:48.043Z,6.84
2017-12-13T18:44:16.403Z,7.80
2017-12-13T18:46:44.675Z,6.54
2017-12-13T18:49:12.969Z,8.58
2017-12-13T18:51:41.313Z,9.72
2017-12-13T18:54:09.622Z,6.48
2017-12-13T18:56:37.965Z,9.50
2017-12-13T18:59:06.279Z,5.38
2017-12-13T19:01:34.576Z,6.32
2017-12-13T19:04:02.893Z,6.64
2017-12-13T19:06:31.238Z,5.96
2017-12-13T19:09:02.857Z,8.78
2017-12-13T19:11:31.143Z,9.72
2017-12-13T19:14:03.000Z,10.38
2017-12-13T19:16:31.359Z,13.90
2017-12-13T19:19:03.193Z,12.98
2017-12-13T19:21:31.526Z,14.98
2017-12-13T19:23:59.882Z,13.12
2017-12-13T19:26:29.002Z,11.40
2017-12-13T19:28:57.332Z,10.20
2017-12-13T19:31:25.683Z,27.38
2017-12-13T19:33:53.986Z,9.42
2017-12-13T19:36:22.308Z,9.38
2017-12-13T19:38:50.636Z,7.10
2017-12-13T19:41:18.883Z,7.12
2017-12-13T19:43:47.183Z,7.68
2017-12-13T19:46:15.509Z,7.76
2017-12-13T19:48:43.813Z,6.84
2017-12-13T19:51:12.150Z,8.64
2017-12-13T19:53:40.403Z,6.04
2017-12-13T19:56:08.827Z,7.50
2017-12-13T19:58:37.169Z,13.02
2017-12-13T20:01:05.456Z,9.60
2017-12-13T20:03:33.790Z,8.50
2017-12-13T20:06:02.141Z,6.10
2017-12-13T20:08:29.660Z,8.30
2017-12-13T20:10:58.613Z,5.24
2017-12-13T20:13:26.941Z,10.06
2017-12-13T20:15:55.280Z,6.50
2017-12-13T20:18:23.595Z,5.34
2017-12-13T20:20:51.940Z,8.14
2017-12-13T20:23:20.190Z,6.12
2017-12-13T20:25:48.521Z,8.80
2017-12-13T20:28:16.835Z,5.90
2017-12-13T20:30:45.712Z,8.38
2017-12-13T20:33:14.018Z,5.86
2017-12-13T20:35:42.770Z,8.44
2017-12-13T20:38:11.113Z,10.80
2017-12-13T20:40:39.414Z,7.94
2017-12-13T20:43:07.708Z,9.94
2017-12-13T20:45:36.028Z,6.90
2017-12-13T20:48:03.559Z,7.34
2017-12-13T20:50:31.900Z,7.90
2017-12-13T20:53:00.226Z,8.32
2017-12-13T20:55:29.527Z,5.64
2017-12-13T20:57:58.771Z,6.78
2017-12-13T21:00:28.341Z,7.52
2017-12-13T21:02:56.691Z,6.50
2017-12-13T21:05:24.998Z,8.64
2017-12-13T21:07:53.286Z,8.00
2017-12-13T21:10:21.574Z,5.02
2017-12-13T21:12:49.869Z,7.98
2017-12-13T21:15:18.194Z,5.80
2017-12-13T21:17:46.499Z,4.02
2017-12-13T21:20:14.826Z,3.30
2017-12-13T21:22:43.109Z,3.72
2017-12-13T21:25:11.434Z,3.88
2017-12-13T21:27:39.728Z,2.22
2017-12-13T21:30:08.100Z,4.12
2017-12-13T21:32:36.351Z,3.54
2017-12-13T21:35:04.693Z,2.58
2017-12-13T21:37:33.065Z,3.36
2017-12-13T21:40:01.369Z,2.66
2017-12-13T21:42:29.876Z,2.20
2017-12-13T21:44:58.947Z,2.38
2017-12-13T21:47:26.464Z,2.62
2017-12-13T21:49:54.777Z,3.16
2017-12-13T21:52:23.099Z,2.36
2017-12-13T21:54:51.425Z,2.60
2017-12-13T21:57:19.732Z,2.26
2017-12-13T21:59:48.064Z,2.66
2017-12-13T22:02:16.378Z,2.92
2017-12-13T22:04:44.670Z,2.30
2017-12-13T22:07:13.006Z,2.36
2017-12-13T22:09:41.298Z,2.40
2017-12-13T22:12:09.626Z,3.02
2017-12-13T22:14:37.935Z,2.32
2017-12-13T22:17:06.266Z,2.62
2017-12-13T22:19:34.552Z,3.54
2017-12-13T22:22:02.883Z,3.34
2017-12-13T22:24:31.220Z,3.18
2017-12-13T22:26:59.497Z,4.30
2017-12-13T22:29:29.248Z,6.86
2017-12-13T22:31:58.511Z,6.04
2017-12-13T22:34:26.754Z,5.52
2017-12-13T22:36:55.036Z,7.46
2017-12-13T22:39:23.347Z,7.04
2017-12-13T22:41:51.646Z,6.04
2017-12-13T22:44:19.969Z,6.74
2017-12-13T22:46:48.265Z,7.26
2017-12-13T22:49:16.506Z,8.62
2017-12-13T22:51:44.835Z,6.58
2017-12-13T22:54:13.161Z,8.26
2017-12-13T22:56:41.440Z,5.74
2017-12-13T22:59:09.734Z,6.28
2017-12-13T23:01:38.053Z,9.54
2017-12-13T23:04:06.321Z,9.60
2017-12-13T23:06:34.627Z,7.44
2017-12-13T23:09:02.967Z,6.74
2017-12-13T23:11:31.260Z,9.68
2017-12-13T23:13:59.528Z,8.56
2017-12-13T23:16:27.892Z,9.30
2017-12-13T23:18:56.184Z,11.00
2017-12-13T23:21:24.441Z,17.74
2017-12-13T23:23:52.721Z,11.36
2017-12-13T23:26:21.013Z,7.98
2017-12-13T23:28:49.267Z,13.62
2017-12-13T23:31:17.550Z,5.88
2017-12-13T23:33:45.802Z,5.62
2017-12-13T23:36:14.054Z,5.80
2017-12-13T23:38:42.343Z,8.72
2017-12-13T23:41:10.591Z,8.42
2017-12-13T23:43:38.831Z,5.24
2017-12-13T23:46:07.112Z,9.78
2017-12-13T23:48:35.362Z,9.14
2017-12-13T23:51:03.654Z,6.20
2017-12-13T23:53:34.939Z,7.32
2017-12-13T23:56:03.241Z,11.26
2017-12-13T23:58:30.719Z,7.30
